sensor_id;sensor_type;location;lat;lon;timestamp;P1;durP1;ratioP1;P2;durP2;ratioP2
2522;SDS011;1272;53.332;9.860;2023-07-13T00:01:37;1.57;;;1.47;;
2522;SDS011;1272;53.332;9.860;2023-07-13T00:04:03;1.70;;;1.60;;
2522;SDS011;1272;53.332;9.860;2023-07-13T00:06:29;1.80;;;1.70;;
2522;SDS011;1272;53.332;9.860;2023-07-13T00:08:58;2.30;;;2.10;;
2522;SDS011;1272;53.332;9.860;2023-07-13T00:11:24;2.17;;;2.00;;
2522;SDS011;1272;53.332;9.860;2023-07-13T00:13:50;2.50;;;2.13;;
2522;SDS011;1272;53.332;9.860;2023-07-13T00:16:16;2.10;;;2.00;;
2522;SDS011;1272;53.332;9.860;2023-07-13T00:18:43;1.90;;;1.80;;
2522;SDS011;1272;53.332;9.860;2023-07-13T00:21:10;2.30;;;2.10;;
2522;SDS011;1272;53.332;9.860;2023-07-13T00:23:36;1.80;;;1.70;;
2522;SDS011;1272;53.332;9.860;2023-07-13T00:26:04;1.80;;;1.70;;
2522;SDS011;1272;53.332;9.860;2023-07-13T00:28:31;1.73;;;1.63;;
2522;SDS011;1272;53.332;9.860;2023-07-13T00:30:57;1.93;;;1.83;;
2522;SDS011;1272;53.332;9.860;2023-07-13T00:33:23;3.37;;;2.20;;
2522;SDS011;1272;53.332;9.860;2023-07-13T00:35:49;1.90;;;1.80;;
2522;SDS011;1272;53.332;9.860;2023-07-13T00:38:15;2.77;;;1.90;;
2522;SDS011;1272;53.332;9.860;2023-07-13T00:40:41;2.13;;;2.03;;
2522;SDS011;1272;53.332;9.860;2023-07-13T00:43:12;1.93;;;1.80;;
2522;SDS011;1272;53.332;9.860;2023-07-13T00:48:10;1.90;;;1.80;;
2522;SDS011;1272;53.332;9.860;2023-07-13T00:50:38;1.70;;;1.60;;
2522;SDS011;1272;53.332;9.860;2023-07-13T00:53:05;4.00;;;1.93;;
2522;SDS011;1272;53.332;9.860;2023-07-13T00:55:31;1.83;;;1.73;;
2522;SDS011;1272;53.332;9.860;2023-07-13T00:57:57;2.53;;;2.43;;
2522;SDS011;1272;53.332;9.860;2023-07-13T01:00:24;2.40;;;2.30;;
2522;SDS011;1272;53.332;9.860;2023-07-13T01:02:51;1.80;;;1.70;;
2522;SDS011;1272;53.332;9.860;2023-07-13T01:05:18;2.10;;;2.00;;
2522;SDS011;1272;53.332;9.860;2023-07-13T01:07:45;2.50;;;1.87;;
2522;SDS011;1272;53.332;9.860;2023-07-13T01:10:14;2.07;;;1.97;;
2522;SDS011;1272;53.332;9.860;2023-07-13T01:12:40;2.17;;;2.07;;
2522;SDS011;1272;53.332;9.860;2023-07-13T01:15:32;1.90;;;1.80;;
2522;SDS011;1272;53.332;9.860;2023-07-13T01:18:07;1.93;;;1.83;;
2522;SDS011;1272;53.332;9.860;2023-07-13T01:20:35;1.90;;;1.80;;
2522;SDS011;1272;53.332;9.860;2023-07-13T01:23:05;2.00;;;1.90;;
2522;SDS011;1272;53.332;9.860;2023-07-13T01:25:34;2.00;;;1.90;;
2522;SDS011;1272;53.332;9.860;2023-07-13T01:28:00;2.20;;;2.10;;
2522;SDS011;1272;53.332;9.860;2023-07-13T01:30:27;1.67;;;1.57;;
2522;SDS011;1272;53.332;9.860;2023-07-13T01:32:53;1.83;;;1.73;;
2522;SDS011;1272;53.332;9.860;2023-07-13T01:35:18;2.03;;;1.93;;
2522;SDS011;1272;53.332;9.860;2023-07-13T01:37:44;2.10;;;1.83;;
2522;SDS011;1272;53.332;9.860;2023-07-13T01:40:10;2.47;;;2.37;;
2522;SDS011;1272;53.332;9.860;2023-07-13T01:42:37;3.03;;;2.80;;
2522;SDS011;1272;53.332;9.860;2023-07-13T01:45:03;3.20;;;3.00;;
2522;SDS011;1272;53.332;9.860;2023-07-13T01:47:29;3.73;;;3.07;;
2522;SDS011;1272;53.332;9.860;2023-07-13T01:49:55;3.60;;;3.30;;
2522;SDS011;1272;53.332;9.860;2023-07-13T01:52:22;3.70;;;3.50;;
2522;SDS011;1272;53.332;9.860;2023-07-13T01:54:47;4.80;;;3.43;;
2522;SDS011;1272;53.332;9.860;2023-07-13T01:57:13;3.60;;;3.40;;
2522;SDS011;1272;53.332;9.860;2023-07-13T01:59:39;3.47;;;3.27;;
2522;SDS011;1272;53.332;9.860;2023-07-13T02:02:04;4.67;;;3.13;;
2522;SDS011;1272;53.332;9.860;2023-07-13T02:04:30;4.13;;;3.83;;
2522;SDS011;1272;53.332;9.860;2023-07-13T02:06:56;3.47;;;3.27;;
2522;SDS011;1272;53.332;9.860;2023-07-13T02:09:21;3.50;;;3.20;;
2522;SDS011;1272;53.332;9.860;2023-07-13T02:11:47;2.97;;;2.87;;
2522;SDS011;1272;53.332;9.860;2023-07-13T02:14:13;4.57;;;3.70;;
2522;SDS011;1272;53.332;9.860;2023-07-13T02:16:40;3.70;;;3.40;;
2522;SDS011;1272;53.332;9.860;2023-07-13T02:19:06;3.43;;;3.13;;
2522;SDS011;1272;53.332;9.860;2023-07-13T02:21:33;3.50;;;3.30;;
2522;SDS011;1272;53.332;9.860;2023-07-13T02:23:58;3.77;;;3.57;;
2522;SDS011;1272;53.332;9.860;2023-07-13T02:26:25;3.20;;;3.10;;
2522;SDS011;1272;53.332;9.860;2023-07-13T02:28:51;3.17;;;2.90;;
2522;SDS011;1272;53.332;9.860;2023-07-13T02:31:16;3.80;;;3.40;;
2522;SDS011;1272;53.332;9.860;2023-07-13T02:33:42;3.53;;;3.23;;
2522;SDS011;1272;53.332;9.860;2023-07-13T02:36:08;3.93;;;3.73;;
2522;SDS011;1272;53.332;9.860;2023-07-13T02:38:34;3.37;;;3.17;;
2522;SDS011;1272;53.332;9.860;2023-07-13T02:41:01;3.73;;;3.43;;
2522;SDS011;1272;53.332;9.860;2023-07-13T02:43:31;3.83;;;3.63;;
2522;SDS011;1272;53.332;9.860;2023-07-13T02:45:58;3.90;;;3.60;;
2522;SDS011;1272;53.332;9.860;2023-07-13T02:48:29;3.60;;;3.40;;
2522;SDS011;1272;53.332;9.860;2023-07-13T02:50:55;3.80;;;3.53;;
2522;SDS011;1272;53.332;9.860;2023-07-13T02:53:20;4.00;;;3.53;;
2522;SDS011;1272;53.332;9.860;2023-07-13T02:55:46;2.77;;;2.67;;
2522;SDS011;1272;53.332;9.860;2023-07-13T02:58:12;2.80;;;2.70;;
2522;SDS011;1272;53.332;9.860;2023-07-13T03:00:45;3.40;;;3.20;;
2522;SDS011;1272;53.332;9.860;2023-07-13T03:03:12;3.40;;;3.30;;
2522;SDS011;1272;53.332;9.860;2023-07-13T03:05:40;4.20;;;3.87;;
2522;SDS011;1272;53.332;9.860;2023-07-13T03:08:07;3.77;;;3.17;;
2522;SDS011;1272;53.332;9.860;2023-07-13T03:10:33;2.90;;;2.70;;
2522;SDS011;1272;53.332;9.860;2023-07-13T03:12:59;3.10;;;2.77;;
2522;SDS011;1272;53.332;9.860;2023-07-13T03:15:25;2.97;;;2.87;;
2522;SDS011;1272;53.332;9.860;2023-07-13T03:17:52;3.60;;;3.40;;
2522;SDS011;1272;53.332;9.860;2023-07-13T03:20:18;2.90;;;2.70;;
2522;SDS011;1272;53.332;9.860;2023-07-13T03:22:45;3.30;;;3.13;;
2522;SDS011;1272;53.332;9.860;2023-07-13T03:25:10;3.90;;;3.50;;
2522;SDS011;1272;53.332;9.860;2023-07-13T03:27:37;3.50;;;3.30;;
2522;SDS011;1272;53.332;9.860;2023-07-13T03:30:03;3.07;;;2.97;;
2522;SDS011;1272;53.332;9.860;2023-07-13T03:32:30;3.50;;;3.20;;
2522;SDS011;1272;53.332;9.860;2023-07-13T03:34:56;3.23;;;3.03;;
2522;SDS011;1272;53.332;9.860;2023-07-13T03:37:21;4.20;;;3.90;;
2522;SDS011;1272;53.332;9.860;2023-07-13T03:39:47;3.67;;;3.00;;
2522;SDS011;1272;53.332;9.860;2023-07-13T03:42:13;3.43;;;3.23;;
2522;SDS011;1272;53.332;9.860;2023-07-13T03:44:40;5.83;;;3.57;;
2522;SDS011;1272;53.332;9.860;2023-07-13T03:47:06;3.20;;;3.00;;
2522;SDS011;1272;53.332;9.860;2023-07-13T03:49:33;3.83;;;3.50;;
2522;SDS011;1272;53.332;9.860;2023-07-13T03:51:59;3.70;;;3.50;;
2522;SDS011;1272;53.332;9.860;2023-07-13T03:54:25;5.23;;;4.83;;
2522;SDS011;1272;53.332;9.860;2023-07-13T03:56:51;4.20;;;3.90;;
2522;SDS011;1272;53.332;9.860;2023-07-13T03:59:17;4.10;;;3.70;;
2522;SDS011;1272;53.332;9.860;2023-07-13T04:01:43;4.00;;;3.80;;
2522;SDS011;1272;53.332;9.860;2023-07-13T04:04:09;4.23;;;4.00;;
2522;SDS011;1272;53.332;9.860;2023-07-13T04:06:35;5.43;;;5.03;;
2522;SDS011;1272;53.332;9.860;2023-07-13T04:09:02;4.03;;;3.63;;
2522;SDS011;1272;53.332;9.860;2023-07-13T04:11:30;4.50;;;4.20;;
2522;SDS011;1272;53.332;9.860;2023-07-13T04:13:57;4.93;;;4.63;;
2522;SDS011;1272;53.332;9.860;2023-07-13T04:16:23;5.83;;;5.23;;
2522;SDS011;1272;53.332;9.860;2023-07-13T04:18:50;5.27;;;4.50;;
2522;SDS011;1272;53.332;9.860;2023-07-13T04:21:19;4.37;;;4.07;;
2522;SDS011;1272;53.332;9.860;2023-07-13T04:23:46;5.23;;;4.30;;
2522;SDS011;1272;53.332;9.860;2023-07-13T04:26:12;4.03;;;3.73;;
2522;SDS011;1272;53.332;9.860;2023-07-13T04:28:38;4.70;;;4.30;;
2522;SDS011;1272;53.332;9.860;2023-07-13T04:31:03;3.77;;;3.57;;
2522;SDS011;1272;53.332;9.860;2023-07-13T04:33:29;4.47;;;4.17;;
2522;SDS011;1272;53.332;9.860;2023-07-13T04:35:55;5.47;;;4.83;;
2522;SDS011;1272;53.332;9.860;2023-07-13T04:38:26;5.93;;;4.43;;
2522;SDS011;1272;53.332;9.860;2023-07-13T04:40:57;6.13;;;4.73;;
2522;SDS011;1272;53.332;9.860;2023-07-13T04:43:25;4.60;;;4.40;;
2522;SDS011;1272;53.332;9.860;2023-07-13T04:45:51;8.27;;;4.50;;
2522;SDS011;1272;53.332;9.860;2023-07-13T04:48:18;5.30;;;4.83;;
2522;SDS011;1272;53.332;9.860;2023-07-13T04:50:44;5.80;;;5.30;;
2522;SDS011;1272;53.332;9.860;2023-07-13T04:53:11;5.10;;;4.70;;
2522;SDS011;1272;53.332;9.860;2023-07-13T04:55:37;3.87;;;3.57;;
2522;SDS011;1272;53.332;9.860;2023-07-13T04:58:02;5.63;;;5.17;;
2522;SDS011;1272;53.332;9.860;2023-07-13T05:00:28;6.23;;;4.93;;
2522;SDS011;1272;53.332;9.860;2023-07-13T05:02:55;4.57;;;4.00;;
2522;SDS011;1272;53.332;9.860;2023-07-13T05:05:22;5.20;;;3.80;;
2522;SDS011;1272;53.332;9.860;2023-07-13T05:07:51;3.60;;;3.40;;
2522;SDS011;1272;53.332;9.860;2023-07-13T05:10:17;6.00;;;4.40;;
2522;SDS011;1272;53.332;9.860;2023-07-13T05:12:43;3.97;;;3.77;;
2522;SDS011;1272;53.332;9.860;2023-07-13T05:15:09;5.20;;;4.17;;
2522;SDS011;1272;53.332;9.860;2023-07-13T05:17:35;4.30;;;3.87;;
2522;SDS011;1272;53.332;9.860;2023-07-13T05:20:01;4.37;;;3.97;;
2522;SDS011;1272;53.332;9.860;2023-07-13T05:22:27;3.67;;;3.37;;
2522;SDS011;1272;53.332;9.860;2023-07-13T05:24:53;3.83;;;3.10;;
2522;SDS011;1272;53.332;9.860;2023-07-13T05:27:18;5.07;;;3.30;;
2522;SDS011;1272;53.332;9.860;2023-07-13T05:29:44;3.90;;;3.40;;
2522;SDS011;1272;53.332;9.860;2023-07-13T05:32:10;8.63;;;3.77;;
2522;SDS011;1272;53.332;9.860;2023-07-13T05:34:35;10.13;;;4.53;;
2522;SDS011;1272;53.332;9.860;2023-07-13T05:37:01;9.10;;;3.30;;
2522;SDS011;1272;53.332;9.860;2023-07-13T05:39:27;6.70;;;3.60;;
2522;SDS011;1272;53.332;9.860;2023-07-13T05:41:53;5.30;;;3.80;;
2522;SDS011;1272;53.332;9.860;2023-07-13T05:44:18;5.07;;;4.40;;
2522;SDS011;1272;53.332;9.860;2023-07-13T05:46:44;7.63;;;3.20;;
2522;SDS011;1272;53.332;9.860;2023-07-13T05:49:10;7.10;;;3.70;;
2522;SDS011;1272;53.332;9.860;2023-07-13T05:51:36;3.30;;;3.10;;
2522;SDS011;1272;53.332;9.860;2023-07-13T05:54:02;9.30;;;3.53;;
2522;SDS011;1272;53.332;9.860;2023-07-13T05:56:28;3.13;;;2.70;;
2522;SDS011;1272;53.332;9.860;2023-07-13T05:58:53;4.53;;;3.23;;
2522;SDS011;1272;53.332;9.860;2023-07-13T06:01:19;6.57;;;4.17;;
2522;SDS011;1272;53.332;9.860;2023-07-13T06:03:46;2.57;;;2.47;;
2522;SDS011;1272;53.332;9.860;2023-07-13T06:06:12;6.20;;;3.03;;
2522;SDS011;1272;53.332;9.860;2023-07-13T06:08:38;3.53;;;2.70;;
2522;SDS011;1272;53.332;9.860;2023-07-13T06:13:35;4.20;;;3.80;;
2522;SDS011;1272;53.332;9.860;2023-07-13T06:16:01;9.07;;;4.17;;
2522;SDS011;1272;53.332;9.860;2023-07-13T06:18:29;8.60;;;3.40;;
2522;SDS011;1272;53.332;9.860;2023-07-13T06:20:56;5.93;;;2.70;;
2522;SDS011;1272;53.332;9.860;2023-07-13T06:23:22;5.93;;;2.77;;
2522;SDS011;1272;53.332;9.860;2023-07-13T06:25:48;8.60;;;2.83;;
2522;SDS011;1272;53.332;9.860;2023-07-13T06:28:14;4.10;;;2.80;;
2522;SDS011;1272;53.332;9.860;2023-07-13T06:30:39;3.50;;;3.20;;
2522;SDS011;1272;53.332;9.860;2023-07-13T06:33:05;4.73;;;2.33;;
2522;SDS011;1272;53.332;9.860;2023-07-13T06:35:31;6.87;;;2.93;;
2522;SDS011;1272;53.332;9.860;2023-07-13T06:37:57;6.00;;;2.93;;
2522;SDS011;1272;53.332;9.860;2023-07-13T06:40:23;13.23;;;3.73;;
2522;SDS011;1272;53.332;9.860;2023-07-13T06:42:48;7.53;;;4.00;;
2522;SDS011;1272;53.332;9.860;2023-07-13T06:45:14;10.63;;;2.80;;
2522;SDS011;1272;53.332;9.860;2023-07-13T06:47:40;4.47;;;2.67;;
2522;SDS011;1272;53.332;9.860;2023-07-13T06:50:06;2.87;;;2.77;;
2522;SDS011;1272;53.332;9.860;2023-07-13T06:52:32;2.47;;;2.33;;
2522;SDS011;1272;53.332;9.860;2023-07-13T06:54:58;7.23;;;2.80;;
2522;SDS011;1272;53.332;9.860;2023-07-13T06:57:23;3.60;;;2.60;;
2522;SDS011;1272;53.332;9.860;2023-07-13T06:59:49;11.57;;;3.33;;
2522;SDS011;1272;53.332;9.860;2023-07-13T07:02:15;6.57;;;2.63;;
2522;SDS011;1272;53.332;9.860;2023-07-13T07:04:41;5.73;;;3.43;;
2522;SDS011;1272;53.332;9.860;2023-07-13T07:07:06;11.23;;;3.57;;
2522;SDS011;1272;53.332;9.860;2023-07-13T07:09:32;4.87;;;3.40;;
2522;SDS011;1272;53.332;9.860;2023-07-13T07:11:58;8.93;;;3.07;;
2522;SDS011;1272;53.332;9.860;2023-07-13T07:14:23;5.50;;;3.00;;
2522;SDS011;1272;53.332;9.860;2023-07-13T07:16:49;7.20;;;3.20;;
2522;SDS011;1272;53.332;9.860;2023-07-13T07:19:15;6.57;;;3.30;;
2522;SDS011;1272;53.332;9.860;2023-07-13T07:21:41;7.43;;;2.73;;
2522;SDS011;1272;53.332;9.860;2023-07-13T07:24:07;8.43;;;2.87;;
2522;SDS011;1272;53.332;9.860;2023-07-13T07:26:33;5.47;;;3.50;;
2522;SDS011;1272;53.332;9.860;2023-07-13T07:28:59;7.70;;;2.73;;
2522;SDS011;1272;53.332;9.860;2023-07-13T07:31:25;9.23;;;3.67;;
2522;SDS011;1272;53.332;9.860;2023-07-13T07:33:51;7.63;;;3.20;;
2522;SDS011;1272;53.332;9.860;2023-07-13T07:36:16;4.30;;;2.23;;
2522;SDS011;1272;53.332;9.860;2023-07-13T07:38:43;8.20;;;3.10;;
2522;SDS011;1272;53.332;9.860;2023-07-13T07:41:09;3.90;;;3.00;;
2522;SDS011;1272;53.332;9.860;2023-07-13T07:43:34;5.83;;;2.87;;
2522;SDS011;1272;53.332;9.860;2023-07-13T07:46:00;7.93;;;3.13;;
2522;SDS011;1272;53.332;9.860;2023-07-13T07:48:26;8.57;;;3.97;;
2522;SDS011;1272;53.332;9.860;2023-07-13T07:50:52;7.07;;;3.10;;
2522;SDS011;1272;53.332;9.860;2023-07-13T07:53:17;10.57;;;3.03;;
2522;SDS011;1272;53.332;9.860;2023-07-13T07:55:43;5.73;;;3.13;;
2522;SDS011;1272;53.332;9.860;2023-07-13T07:58:10;3.00;;;2.80;;
2522;SDS011;1272;53.332;9.860;2023-07-13T08:00:36;12.63;;;3.10;;
2522;SDS011;1272;53.332;9.860;2023-07-13T08:03:01;10.73;;;3.53;;
2522;SDS011;1272;53.332;9.860;2023-07-13T08:05:28;5.33;;;3.37;;
2522;SDS011;1272;53.332;9.860;2023-07-13T08:07:53;4.43;;;3.43;;
2522;SDS011;1272;53.332;9.860;2023-07-13T08:10:20;3.70;;;3.40;;
2522;SDS011;1272;53.332;9.860;2023-07-13T08:12:46;7.97;;;2.90;;
2522;SDS011;1272;53.332;9.860;2023-07-13T08:15:13;5.63;;;3.10;;
2522;SDS011;1272;53.332;9.860;2023-07-13T08:17:41;6.20;;;3.07;;
2522;SDS011;1272;53.332;9.860;2023-07-13T08:20:07;3.20;;;2.50;;
2522;SDS011;1272;53.332;9.860;2023-07-13T08:22:34;4.90;;;2.90;;
2522;SDS011;1272;53.332;9.860;2023-07-13T08:25:00;3.73;;;2.60;;
2522;SDS011;1272;53.332;9.860;2023-07-13T08:27:26;3.57;;;2.10;;
2522;SDS011;1272;53.332;9.860;2023-07-13T08:29:53;4.00;;;2.90;;
2522;SDS011;1272;53.332;9.860;2023-07-13T08:32:20;8.17;;;2.50;;
2522;SDS011;1272;53.332;9.860;2023-07-13T08:34:47;3.27;;;2.20;;
2522;SDS011;1272;53.332;9.860;2023-07-13T08:37:13;5.70;;;2.50;;
2522;SDS011;1272;53.332;9.860;2023-07-13T08:39:40;5.20;;;2.40;;
2522;SDS011;1272;53.332;9.860;2023-07-13T08:47:22;5.43;;;2.07;;
2522;SDS011;1272;53.332;9.860;2023-07-13T08:49:49;3.37;;;2.57;;
2522;SDS011;1272;53.332;9.860;2023-07-13T08:55:02;2.97;;;2.30;;
2522;SDS011;1272;53.332;9.860;2023-07-13T08:57:38;3.43;;;2.60;;
2522;SDS011;1272;53.332;9.860;2023-07-13T09:00:10;9.70;;;2.83;;
2522;SDS011;1272;53.332;9.860;2023-07-13T09:02:45;3.13;;;2.60;;
2522;SDS011;1272;53.332;9.860;2023-07-13T09:05:40;7.67;;;3.43;;
2522;SDS011;1272;53.332;9.860;2023-07-13T09:11:16;4.80;;;3.30;;
2522;SDS011;1272;53.332;9.860;2023-07-13T09:16:31;5.43;;;3.03;;
2522;SDS011;1272;53.332;9.860;2023-07-13T09:19:03;8.30;;;3.03;;
2522;SDS011;1272;53.332;9.860;2023-07-13T09:21:32;3.10;;;2.90;;
2522;SDS011;1272;53.332;9.860;2023-07-13T09:27:27;6.73;;;2.40;;
2522;SDS011;1272;53.332;9.860;2023-07-13T09:30:02;8.07;;;2.80;;
2522;SDS011;1272;53.332;9.860;2023-07-13T09:32:41;3.67;;;2.73;;
2522;SDS011;1272;53.332;9.860;2023-07-13T09:35:12;3.30;;;3.00;;
2522;SDS011;1272;53.332;9.860;2023-07-13T09:37:43;7.67;;;2.67;;
2522;SDS011;1272;53.332;9.860;2023-07-13T09:40:11;4.90;;;2.30;;
2522;SDS011;1272;53.332;9.860;2023-07-13T09:42:45;4.17;;;2.40;;
2522;SDS011;1272;53.332;9.860;2023-07-13T09:45:11;6.03;;;2.60;;
2522;SDS011;1272;53.332;9.860;2023-07-13T09:47:53;4.40;;;2.20;;
2522;SDS011;1272;53.332;9.860;2023-07-13T09:50:44;3.33;;;2.07;;
2522;SDS011;1272;53.332;9.860;2023-07-13T09:53:11;5.27;;;3.47;;
2522;SDS011;1272;53.332;9.860;2023-07-13T09:55:42;5.73;;;2.67;;
2522;SDS011;1272;53.332;9.860;2023-07-13T10:00:38;5.30;;;2.90;;
2522;SDS011;1272;53.332;9.860;2023-07-13T10:03:19;3.23;;;2.50;;
2522;SDS011;1272;53.332;9.860;2023-07-13T10:05:48;5.67;;;2.60;;
2522;SDS011;1272;53.332;9.860;2023-07-13T10:08:23;2.93;;;2.73;;
2522;SDS011;1272;53.332;9.860;2023-07-13T10:14:01;4.20;;;3.00;;
2522;SDS011;1272;53.332;9.860;2023-07-13T10:16:39;3.33;;;3.10;;
2522;SDS011;1272;53.332;9.860;2023-07-13T10:19:19;5.13;;;3.90;;
2522;SDS011;1272;53.332;9.860;2023-07-13T10:21:54;3.57;;;3.30;;
2522;SDS011;1272;53.332;9.860;2023-07-13T10:24:29;6.60;;;2.80;;
2522;SDS011;1272;53.332;9.860;2023-07-13T10:29:34;4.23;;;2.73;;
2522;SDS011;1272;53.332;9.860;2023-07-13T10:32:07;3.73;;;2.73;;
2522;SDS011;1272;53.332;9.860;2023-07-13T10:34:35;3.10;;;2.80;;
2522;SDS011;1272;53.332;9.860;2023-07-13T10:37:02;3.80;;;2.60;;
2522;SDS011;1272;53.332;9.860;2023-07-13T10:39:30;2.50;;;2.23;;
2522;SDS011;1272;53.332;9.860;2023-07-13T10:41:59;3.73;;;2.40;;
2522;SDS011;1272;53.332;9.860;2023-07-13T10:44:29;4.93;;;2.73;;
2522;SDS011;1272;53.332;9.860;2023-07-13T10:46:57;3.00;;;2.57;;
2522;SDS011;1272;53.332;9.860;2023-07-13T10:49:26;7.67;;;2.30;;
2522;SDS011;1272;53.332;9.860;2023-07-13T10:51:54;2.67;;;2.23;;
2522;SDS011;1272;53.332;9.860;2023-07-13T10:54:21;3.90;;;2.40;;
2522;SDS011;1272;53.332;9.860;2023-07-13T10:56:53;5.30;;;2.50;;
2522;SDS011;1272;53.332;9.860;2023-07-13T10:59:37;4.63;;;2.17;;
2522;SDS011;1272;53.332;9.860;2023-07-13T11:04:39;2.30;;;2.20;;
2522;SDS011;1272;53.332;9.860;2023-07-13T11:07:17;11.93;;;4.27;;
2522;SDS011;1272;53.332;9.860;2023-07-13T11:09:55;4.07;;;1.80;;
2522;SDS011;1272;53.332;9.860;2023-07-13T11:12:48;2.87;;;1.93;;
2522;SDS011;1272;53.332;9.860;2023-07-13T11:15:31;2.53;;;2.33;;
2522;SDS011;1272;53.332;9.860;2023-07-13T11:18:21;4.00;;;1.73;;
2522;SDS011;1272;53.332;9.860;2023-07-13T11:20:50;2.73;;;1.93;;
2522;SDS011;1272;53.332;9.860;2023-07-13T11:25:42;4.90;;;2.50;;
2522;SDS011;1272;53.332;9.860;2023-07-13T11:30:39;2.37;;;1.97;;
2522;SDS011;1272;53.332;9.860;2023-07-13T11:36:17;2.73;;;2.50;;
2522;SDS011;1272;53.332;9.860;2023-07-13T11:38:51;2.13;;;1.93;;
2522;SDS011;1272;53.332;9.860;2023-07-13T11:41:36;3.57;;;2.53;;
2522;SDS011;1272;53.332;9.860;2023-07-13T11:44:12;4.80;;;2.40;;
2522;SDS011;1272;53.332;9.860;2023-07-13T11:46:44;2.00;;;1.90;;
2522;SDS011;1272;53.332;9.860;2023-07-13T11:49:13;4.73;;;2.97;;
2522;SDS011;1272;53.332;9.860;2023-07-13T11:51:41;2.50;;;2.20;;
2522;SDS011;1272;53.332;9.860;2023-07-13T11:54:43;2.40;;;2.20;;
2522;SDS011;1272;53.332;9.860;2023-07-13T11:57:28;2.33;;;2.20;;
2522;SDS011;1272;53.332;9.860;2023-07-13T11:59:59;1.97;;;1.87;;
2522;SDS011;1272;53.332;9.860;2023-07-13T12:02:38;6.10;;;2.13;;
2522;SDS011;1272;53.332;9.860;2023-07-13T12:05:09;2.17;;;2.07;;
2522;SDS011;1272;53.332;9.860;2023-07-13T12:07:37;2.30;;;2.10;;
2522;SDS011;1272;53.332;9.860;2023-07-13T12:12:47;2.10;;;1.90;;
2522;SDS011;1272;53.332;9.860;2023-07-13T12:15:16;2.70;;;1.90;;
2522;SDS011;1272;53.332;9.860;2023-07-13T12:17:42;5.53;;;2.87;;
2522;SDS011;1272;53.332;9.860;2023-07-13T12:20:26;4.03;;;2.80;;
2522;SDS011;1272;53.332;9.860;2023-07-13T12:22:53;3.97;;;2.67;;
2522;SDS011;1272;53.332;9.860;2023-07-13T12:25:19;6.10;;;3.17;;
2522;SDS011;1272;53.332;9.860;2023-07-13T12:27:47;5.83;;;3.03;;
2522;SDS011;1272;53.332;9.860;2023-07-13T12:32:55;3.60;;;3.10;;
2522;SDS011;1272;53.332;9.860;2023-07-13T12:35:23;2.70;;;2.50;;
2522;SDS011;1272;53.332;9.860;2023-07-13T12:37:50;3.43;;;2.80;;
2522;SDS011;1272;53.332;9.860;2023-07-13T12:40:21;3.17;;;2.87;;
2522;SDS011;1272;53.332;9.860;2023-07-13T12:42:51;2.40;;;2.30;;
2522;SDS011;1272;53.332;9.860;2023-07-13T12:45:19;2.40;;;2.30;;
2522;SDS011;1272;53.332;9.860;2023-07-13T12:47:49;3.10;;;2.80;;
2522;SDS011;1272;53.332;9.860;2023-07-13T12:50:21;2.60;;;2.50;;
2522;SDS011;1272;53.332;9.860;2023-07-13T12:52:52;3.43;;;2.60;;
2522;SDS011;1272;53.332;9.860;2023-07-13T12:55:20;5.30;;;3.77;;
2522;SDS011;1272;53.332;9.860;2023-07-13T12:57:51;5.57;;;3.30;;
2522;SDS011;1272;53.332;9.860;2023-07-13T13:00:35;4.60;;;3.30;;
2522;SDS011;1272;53.332;9.860;2023-07-13T13:03:49;3.40;;;2.10;;
2522;SDS011;1272;53.332;9.860;2023-07-13T13:06:02;3.13;;;2.30;;
2522;SDS011;1272;53.332;9.860;2023-07-13T13:08:33;3.70;;;2.67;;
2522;SDS011;1272;53.332;9.860;2023-07-13T13:11:03;4.17;;;2.07;;
2522;SDS011;1272;53.332;9.860;2023-07-13T13:13:29;2.73;;;2.50;;
2522;SDS011;1272;53.332;9.860;2023-07-13T13:15:55;4.43;;;3.00;;
2522;SDS011;1272;53.332;9.860;2023-07-13T13:18:22;2.47;;;2.23;;
2522;SDS011;1272;53.332;9.860;2023-07-13T13:20:51;3.30;;;2.23;;
2522;SDS011;1272;53.332;9.860;2023-07-13T13:23:18;2.43;;;2.23;;
2522;SDS011;1272;53.332;9.860;2023-07-13T13:25:48;2.50;;;2.30;;
2522;SDS011;1272;53.332;9.860;2023-07-13T13:28:16;1.93;;;1.83;;
2522;SDS011;1272;53.332;9.860;2023-07-13T13:30:45;2.20;;;2.10;;
2522;SDS011;1272;53.332;9.860;2023-07-13T13:33:13;3.23;;;2.60;;
2522;SDS011;1272;53.332;9.860;2023-07-13T13:35:41;2.80;;;2.70;;
2522;SDS011;1272;53.332;9.860;2023-07-13T13:38:15;3.03;;;2.90;;
2522;SDS011;1272;53.332;9.860;2023-07-13T13:40:49;3.00;;;2.80;;
2522;SDS011;1272;53.332;9.860;2023-07-13T13:45:43;3.23;;;3.03;;
2522;SDS011;1272;53.332;9.860;2023-07-13T13:48:20;4.10;;;3.70;;
2522;SDS011;1272;53.332;9.860;2023-07-13T13:50:55;4.53;;;4.23;;
2522;SDS011;1272;53.332;9.860;2023-07-13T13:53:21;4.13;;;3.83;;
2522;SDS011;1272;53.332;9.860;2023-07-13T13:55:48;4.23;;;3.93;;
2522;SDS011;1272;53.332;9.860;2023-07-13T13:58:14;4.67;;;4.20;;
2522;SDS011;1272;53.332;9.860;2023-07-13T14:00:40;3.83;;;3.50;;
2522;SDS011;1272;53.332;9.860;2023-07-13T14:03:28;5.67;;;3.83;;
2522;SDS011;1272;53.332;9.860;2023-07-13T14:05:54;4.43;;;4.03;;
2522;SDS011;1272;53.332;9.860;2023-07-13T14:08:22;4.20;;;3.83;;
2522;SDS011;1272;53.332;9.860;2023-07-13T14:10:48;4.07;;;3.77;;
2522;SDS011;1272;53.332;9.860;2023-07-13T14:13:21;7.33;;;4.23;;
2522;SDS011;1272;53.332;9.860;2023-07-13T14:15:51;4.13;;;3.83;;
2522;SDS011;1272;53.332;9.860;2023-07-13T14:18:17;3.70;;;3.47;;
2522;SDS011;1272;53.332;9.860;2023-07-13T14:20:47;3.37;;;3.07;;
2522;SDS011;1272;53.332;9.860;2023-07-13T14:23:16;3.63;;;3.20;;
2522;SDS011;1272;53.332;9.860;2023-07-13T14:25:43;2.80;;;2.60;;
2522;SDS011;1272;53.332;9.860;2023-07-13T14:28:20;2.10;;;2.00;;
2522;SDS011;1272;53.332;9.860;2023-07-13T14:30:50;2.40;;;2.27;;
2522;SDS011;1272;53.332;9.860;2023-07-13T14:33:16;3.07;;;2.10;;
2522;SDS011;1272;53.332;9.860;2023-07-13T14:35:41;2.20;;;1.80;;
2522;SDS011;1272;53.332;9.860;2023-07-13T14:38:09;1.73;;;1.63;;
2522;SDS011;1272;53.332;9.860;2023-07-13T14:40:40;1.67;;;1.57;;
2522;SDS011;1272;53.332;9.860;2023-07-13T14:43:10;2.60;;;1.90;;
2522;SDS011;1272;53.332;9.860;2023-07-13T14:45:41;2.03;;;1.80;;
2522;SDS011;1272;53.332;9.860;2023-07-13T14:48:19;3.10;;;2.07;;
2522;SDS011;1272;53.332;9.860;2023-07-13T14:50:50;1.70;;;1.60;;
2522;SDS011;1272;53.332;9.860;2023-07-13T14:53:21;2.10;;;2.00;;
2522;SDS011;1272;53.332;9.860;2023-07-13T14:55:47;1.73;;;1.63;;
2522;SDS011;1272;53.332;9.860;2023-07-13T14:58:13;2.10;;;2.00;;
2522;SDS011;1272;53.332;9.860;2023-07-13T15:00:38;1.40;;;1.40;;
2522;SDS011;1272;53.332;9.860;2023-07-13T15:03:05;1.50;;;1.40;;
2522;SDS011;1272;53.332;9.860;2023-07-13T15:05:39;2.13;;;1.70;;
2522;SDS011;1272;53.332;9.860;2023-07-13T15:08:05;1.90;;;1.80;;
2522;SDS011;1272;53.332;9.860;2023-07-13T15:10:32;1.90;;;1.80;;
2522;SDS011;1272;53.332;9.860;2023-07-13T15:13:00;1.70;;;1.60;;
2522;SDS011;1272;53.332;9.860;2023-07-13T15:15:37;1.73;;;1.63;;
2522;SDS011;1272;53.332;9.860;2023-07-13T15:18:05;1.80;;;1.70;;
2522;SDS011;1272;53.332;9.860;2023-07-13T15:20:34;2.60;;;2.40;;
2522;SDS011;1272;53.332;9.860;2023-07-13T15:23:02;2.20;;;2.00;;
2522;SDS011;1272;53.332;9.860;2023-07-13T15:25:29;2.17;;;1.97;;
2522;SDS011;1272;53.332;9.860;2023-07-13T15:27:57;1.77;;;1.67;;
2522;SDS011;1272;53.332;9.860;2023-07-13T15:30:25;2.07;;;1.70;;
2522;SDS011;1272;53.332;9.860;2023-07-13T15:32:53;2.00;;;1.90;;
2522;SDS011;1272;53.332;9.860;2023-07-13T15:35:21;1.97;;;1.87;;
2522;SDS011;1272;53.332;9.860;2023-07-13T15:37:49;2.30;;;2.10;;
2522;SDS011;1272;53.332;9.860;2023-07-13T15:40:15;2.17;;;2.07;;
2522;SDS011;1272;53.332;9.860;2023-07-13T15:42:42;2.60;;;2.40;;
2522;SDS011;1272;53.332;9.860;2023-07-13T15:45:18;3.80;;;1.80;;
2522;SDS011;1272;53.332;9.860;2023-07-13T15:47:49;1.67;;;1.57;;
2522;SDS011;1272;53.332;9.860;2023-07-13T15:50:20;1.90;;;1.80;;
2522;SDS011;1272;53.332;9.860;2023-07-13T15:52:48;2.40;;;1.67;;
2522;SDS011;1272;53.332;9.860;2023-07-13T15:55:16;1.70;;;1.60;;
2522;SDS011;1272;53.332;9.860;2023-07-13T15:57:51;3.17;;;2.00;;
2522;SDS011;1272;53.332;9.860;2023-07-13T16:00:22;2.10;;;1.90;;
2522;SDS011;1272;53.332;9.860;2023-07-13T16:02:50;1.90;;;1.53;;
2522;SDS011;1272;53.332;9.860;2023-07-13T16:05:17;2.10;;;2.00;;
2522;SDS011;1272;53.332;9.860;2023-07-13T16:07:45;2.37;;;2.00;;
2522;SDS011;1272;53.332;9.860;2023-07-13T16:10:13;4.60;;;2.00;;
2522;SDS011;1272;53.332;9.860;2023-07-13T16:12:41;4.20;;;2.00;;